Jacksonwald, Pennsylvania
Current Conditions -  °F | °C
As of 9:54 AM on Saturday 20 Dec 2014 (Local Time) from KRDG Reporting Station
Overcast Overcast  
Wind Chill: 28°   Ceiling: 2900
Heat Index: 33°   Visibility: 10mi
Dew Point: 20°   Wind: 6mph
Humidity: 59%   Direction: 10°N
Pressure: 30.3"   Gusts: NA
Location:  40.3351°N, 75.8521°W
Report Text: KRDG 201454Z AUTO 01005KT 10SM OVC029 01/M07 A3030 RMK AO2 SLP268 T00061067 51019
Loading
Personal Weather Stations






























Interactive Weather Map New forecast layout! Learn more

10-Day Weather Forecast

Advertisements
Track Severe Weather on mobile